Time;durP1;ratioP1;P1;durP2;ratioP2;P2;SDS_P1;SDS_P2;PMS_P1;PMS_P2;Temp;Humidity;BMP_temperature;BMP_pressure;BME280_temperature;BME280_humidity;BME280_pressure;Samples;Min_cycle;Max_cycle;Signal;HPM_P1;HPM_P2
2023/11/15 00:00:00;;;;;;;2.75;2.13;;;;;;;9.89;100.00;96472.19;5081077;28;20054;-63
2023/11/15 00:02:25;;;;;;;2.00;1.80;;;;;;;9.81;100.00;96478.03;5082541;28;20041;-63
2023/11/15 00:04:50;;;;;;;7.32;3.47;;;;;;;9.77;100.00;96478.38;5087893;28;20021;-64
2023/11/15 00:07:16;;;;;;;12.40;11.30;;;;;;;9.77;100.00;96478.38;5081400;28;20119;-64
2023/11/15 00:09:41;;;;;;;7.55;6.70;;;;;;;9.68;100.00;96488.66;5090277;28;20012;-64
2023/11/15 00:12:07;;;;;;;19.10;17.20;;;;;;;9.68;100.00;96487.78;5082291;28;20028;-63
2023/11/15 00:14:32;;;;;;;37.67;33.90;;;;;;;9.70;100.00;96496.41;5083339;28;20017;-64
2023/11/15 00:16:58;;;;;;;15.95;14.50;;;;;;;9.69;100.00;96494.72;5089779;28;20108;-63
2023/11/15 00:19:23;;;;;;;44.60;39.97;;;;;;;9.64;100.00;96497.72;5077421;28;20072;-63
2023/11/15 00:21:49;;;;;;;23.55;21.25;;;;;;;9.63;100.00;96496.06;5097701;28;20039;-63
2023/11/15 00:24:15;;;;;;;16.77;15.18;;;;;;;9.65;100.00;96495.91;5083827;28;20119;-64
2023/11/15 00:26:40;;;;;;;7.22;4.78;;;;;;;9.51;100.00;96494.34;5084961;28;20035;-63
2023/11/15 00:29:05;;;;;;;5.65;3.15;;;;;;;9.36;100.00;96498.94;5087761;28;20465;-63
2023/11/15 00:31:31;;;;;;;5.90;3.30;;;;;;;9.32;100.00;96493.94;5088447;28;20032;-63
2023/11/15 00:33:57;;;;;;;5.38;3.60;;;;;;;9.28;100.00;96500.38;5078546;28;20437;-63
2023/11/15 00:36:23;;;;;;;5.28;3.83;;;;;;;9.28;100.00;96489.00;5081653;28;20400;-64
2023/11/15 00:38:49;;;;;;;78.03;69.50;;;;;;;9.28;100.00;96483.75;5087385;28;20016;-63
2023/11/15 00:41:15;;;;;;;31.20;28.00;;;;;;;9.27;100.00;96487.34;5082384;28;20545;-63
2023/11/15 00:43:40;;;;;;;21.90;19.63;;;;;;;9.29;100.00;96488.06;5091623;28;20032;-64
2023/11/15 00:46:06;;;;;;;22.65;20.45;;;;;;;9.27;100.00;96488.16;5091954;28;20380;-64
2023/11/15 00:48:32;;;;;;;5.10;4.63;;;;;;;9.25;100.00;96497.13;5089038;28;20024;-64
2023/11/15 00:50:57;;;;;;;4.57;3.60;;;;;;;9.11;100.00;96501.59;5082191;28;20028;-64
2023/11/15 00:53:23;;;;;;;7.03;5.32;;;;;;;9.07;100.00;96508.03;5094221;28;20023;-64
2023/11/15 00:55:48;;;;;;;5.03;4.05;;;;;;;8.99;100.00;96508.59;5083589;28;20024;-64
2023/11/15 00:58:14;;;;;;;4.60;2.75;;;;;;;8.95;100.00;96498.41;5089692;28;20527;-64
2023/11/15 01:00:44;;;;;;;3.20;2.85;;;;;;;8.93;100.00;96510.81;5079394;28;20025;-65
2023/11/15 01:03:12;;;;;;;4.68;2.97;;;;;;;8.89;100.00;96513.69;5087430;28;20053;-64
2023/11/15 01:05:37;;;;;;;5.25;2.92;;;;;;;8.80;100.00;96514.34;5089705;28;20501;-64
2023/11/15 01:08:04;;;;;;;2.70;2.42;;;;;;;8.81;100.00;96517.78;5078721;28;20051;-65
2023/11/15 01:10:30;;;;;;;3.13;2.45;;;;;;;8.74;100.00;96517.44;5081483;28;20127;-63
2023/11/15 01:12:55;;;;;;;1.67;1.50;;;;;;;8.78;100.00;96521.50;5075130;28;20017;-64
2023/11/15 01:15:21;;;;;;;6.25;2.75;;;;;;;8.63;100.00;96517.34;5076608;28;20947;-63
2023/11/15 01:17:47;;;;;;;13.13;8.73;;;;;;;8.60;100.00;96511.38;5075992;28;20055;-64
2023/11/15 01:20:12;;;;;;;5.45;5.00;;;;;;;8.59;100.00;96517.56;5085781;28;20066;-63
2023/11/15 01:22:38;;;;;;;2.72;2.50;;;;;;;8.52;100.00;96526.84;5087606;28;20035;-64
2023/11/15 01:25:05;;;;;;;4.20;2.33;;;;;;;8.50;100.00;96522.63;5086729;28;20569;-64
2023/11/15 01:27:30;;;;;;;4.30;2.67;;;;;;;8.43;100.00;96527.44;5088401;28;20028;-63
2023/11/15 01:29:56;;;;;;;6.57;3.22;;;;;;;8.44;100.00;96534.34;5089875;28;20024;-64
2023/11/15 01:32:22;;;;;;;4.13;3.50;;;;;;;8.45;100.00;96529.00;5082006;28;20074;-64
2023/11/15 01:34:47;;;;;;;6.13;3.40;;;;;;;8.52;100.00;96531.22;5081999;28;20088;-64
2023/11/15 01:37:14;;;;;;;8.10;3.70;;;;;;;8.45;100.00;96536.88;5088245;28;20467;-64
2023/11/15 01:39:39;;;;;;;5.13;4.60;;;;;;;8.36;100.00;96521.78;5075627;28;20051;-64
2023/11/15 01:42:05;;;;;;;5.50;3.00;;;;;;;8.29;100.00;96521.38;5081371;28;20147;-64
2023/11/15 01:44:31;;;;;;;2.97;2.78;;;;;;;8.24;100.00;96514.78;5094262;28;20554;-64
2023/11/15 01:46:57;;;;;;;3.35;2.35;;;;;;;8.22;100.00;96517.50;5089871;28;20023;-64
2023/11/15 01:49:23;;;;;;;4.75;2.38;;;;;;;8.17;100.00;96524.84;5079722;28;20016;-64
2023/11/15 01:51:50;;;;;;;2.63;1.88;;;;;;;8.09;100.00;96516.69;5084624;28;20024;-64
2023/11/15 01:54:18;;;;;;;2.78;1.55;;;;;;;8.07;100.00;96519.41;5085592;28;20046;-64
2023/11/15 01:56:43;;;;;;;3.10;1.75;;;;;;;8.05;100.00;96520.44;5089897;28;20020;-64
2023/11/15 01:59:09;;;;;;;3.17;2.00;;;;;;;7.98;100.00;96523.50;5092385;28;20081;-64
2023/11/15 02:01:35;;;;;;;5.82;2.72;;;;;;;8.02;100.00;96535.44;5085023;28;20036;-64
2023/11/15 02:04:00;;;;;;;5.53;2.15;;;;;;;7.98;100.00;96541.03;5076177;28;20131;-64
2023/11/15 02:06:30;;;;;;;4.32;2.28;;;;;;;7.94;100.00;96550.88;5076859;28;20020;-64
2023/11/15 02:08:56;;;;;;;3.25;1.85;;;;;;;7.85;100.00;96539.22;5087483;28;20549;-64
2023/11/15 02:11:22;;;;;;;3.50;2.17;;;;;;;7.71;100.00;96539.31;5027505;28;1554125;-64
2023/11/15 02:13:48;;;;;;;3.38;2.30;;;;;;;7.64;100.00;96546.78;5092219;28;20036;-64
2023/11/15 02:16:13;;;;;;;3.33;1.73;;;;;;;7.61;100.00;96546.94;5079555;28;20028;-64
2023/11/15 02:18:38;;;;;;;2.80;2.30;;;;;;;7.63;100.00;96545.09;5079273;28;20051;-64
2023/11/15 02:21:07;;;;;;;3.58;2.80;;;;;;;7.60;100.00;96550.50;5087552;28;20072;-64
2023/11/15 02:23:40;;;;;;;7.05;5.53;;;;;;;7.59;100.00;96548.84;5086695;28;20028;-64
2023/11/15 02:26:05;;;;;;;12.45;7.20;;;;;;;7.61;100.00;96539.09;5087740;28;20020;-63
2023/11/15 02:28:30;;;;;;;8.02;5.10;;;;;;;7.62;100.00;96539.94;5078868;28;20020;-64
2023/11/15 02:30:56;;;;;;;7.60;3.13;;;;;;;7.60;100.00;96547.88;5087337;28;20476;-64
2023/11/15 02:33:21;;;;;;;4.40;2.22;;;;;;;7.59;100.00;96548.84;5081951;28;20058;-64
2023/11/15 02:35:47;;;;;;;4.72;1.30;;;;;;;7.53;100.00;96544.00;5073742;28;20024;-64
2023/11/15 02:38:13;;;;;;;5.25;1.48;;;;;;;7.41;100.00;96536.03;5090132;28;20413;-64
2023/11/15 02:40:38;;;;;;;5.93;3.22;;;;;;;7.36;100.00;96532.84;5086112;28;20028;-64
2023/11/15 02:43:05;;;;;;;6.35;3.10;;;;;;;7.33;100.00;96538.31;5086032;28;20020;-64
2023/11/15 02:45:30;;;;;;;7.45;2.60;;;;;;;7.24;100.00;96541.53;5086589;28;20023;-64
2023/11/15 02:47:56;;;;;;;3.65;1.77;;;;;;;7.16;100.00;96550.72;5077212;28;20035;-64
2023/11/15 02:50:21;;;;;;;4.93;2.20;;;;;;;7.11;100.00;96531.84;5077598;28;20034;-64
2023/11/15 02:52:47;;;;;;;6.82;2.33;;;;;;;7.11;100.00;96534.47;5084301;28;20088;-64
2023/11/15 02:55:12;;;;;;;6.28;2.08;;;;;;;7.07;100.00;96546.09;5097543;28;20039;-64
2023/11/15 02:57:38;;;;;;;5.18;2.65;;;;;;;7.01;100.00;96541.25;5089287;28;20020;-64
2023/11/15 03:00:05;;;;;;;4.70;2.53;;;;;;;6.94;100.00;96540.81;5077823;28;20464;-64
2023/11/15 03:02:30;;;;;;;4.88;2.45;;;;;;;6.87;100.00;96537.72;5093810;28;20024;-64
2023/11/15 03:04:56;;;;;;;6.10;2.78;;;;;;;6.82;100.00;96534.56;5088315;28;20022;-64
2023/11/15 03:07:21;;;;;;;8.75;2.75;;;;;;;6.87;100.00;96544.75;5076304;28;20507;-64
2023/11/15 03:09:46;;;;;;;6.75;2.67;;;;;;;6.92;100.00;96534.84;5075472;28;20060;-64
2023/11/15 03:12:12;;;;;;;8.63;3.55;;;;;;;6.95;100.00;96539.00;5091415;28;20047;-64
2023/11/15 03:14:37;;;;;;;9.82;6.18;;;;;;;6.99;100.00;96540.53;5089330;28;20024;-64
2023/11/15 03:17:11;;;;;;;7.03;4.60;;;;;;;6.97;100.00;96531.94;5086553;28;20034;-64
2023/11/15 03:19:37;;;;;;;7.63;5.68;;;;;;;6.86;100.00;96530.81;5078969;28;20088;-64
2023/11/15 03:22:02;;;;;;;51.15;36.55;;;;;;;6.84;100.00;96527.47;5087700;28;20503;-64
2023/11/15 03:24:28;;;;;;;51.40;27.20;;;;;;;6.76;100.00;96531.50;5090917;28;20104;-64
2023/11/15 03:26:54;;;;;;;31.08;21.20;;;;;;;6.69;100.00;96537.13;5076968;28;20082;-64
2023/11/15 03:29:20;;;;;;;9.38;7.50;;;;;;;6.66;100.00;96541.72;5085031;28;20012;-64
2023/11/15 03:31:45;;;;;;;5.93;3.95;;;;;;;6.57;100.00;96546.59;5078905;28;20036;-64
2023/11/15 03:34:10;;;;;;;11.05;6.70;;;;;;;6.51;100.00;96544.34;5082630;28;20024;-64
2023/11/15 03:36:36;;;;;;;37.28;24.08;;;;;;;6.47;100.00;96548.09;5074844;28;20095;-64
2023/11/15 03:39:01;;;;;;;35.90;24.25;;;;;;;6.44;100.00;96548.28;5074530;28;20017;-64
2023/11/15 03:41:27;;;;;;;36.22;26.33;;;;;;;6.42;100.00;96548.41;5079476;28;20174;-62
2023/11/15 03:43:52;;;;;;;7.40;4.90;;;;;;;6.34;100.00;96549.81;5088888;28;20027;-62
2023/11/15 03:46:17;;;;;;;5.82;2.35;;;;;;;6.29;100.00;96556.13;5094418;28;20035;-62
2023/11/15 03:48:43;;;;;;;4.53;3.20;;;;;;;6.33;100.00;96561.22;5086883;28;20026;-62
2023/11/15 03:51:08;;;;;;;9.20;6.15;;;;;;;6.34;100.00;96562.88;5081941;28;20028;-62
2023/11/15 03:53:34;;;;;;;9.15;6.45;;;;;;;6.28;100.00;96562.31;5076678;28;20031;-62
2023/11/15 03:55:59;;;;;;;8.20;5.70;;;;;;;6.26;100.00;96569.41;5081796;28;20073;-62
2023/11/15 03:58:25;;;;;;;6.47;3.50;;;;;;;6.22;100.00;96570.53;5088753;28;20070;-63
2023/11/15 04:00:50;;;;;;;5.70;3.95;;;;;;;6.25;100.00;96569.50;5086011;28;20638;-62
2023/11/15 04:03:16;;;;;;;9.07;2.70;;;;;;;6.30;100.00;96573.53;5088953;28;20020;-62
2023/11/15 04:05:42;;;;;;;7.90;3.97;;;;;;;6.29;100.00;96571.81;5085523;28;20043;-62
2023/11/15 04:08:09;;;;;;;6.18;2.35;;;;;;;6.27;100.00;96572.88;5092367;28;20544;-62
2023/11/15 04:10:34;;;;;;;4.43;2.95;;;;;;;6.28;100.00;96570.16;5079492;28;20049;-62
2023/11/15 04:13:00;;;;;;;3.22;2.80;;;;;;;6.38;100.00;96580.06;5092085;28;20047;-62
2023/11/15 04:15:25;;;;;;;12.25;3.33;;;;;;;6.42;100.00;96594.63;5089497;28;20491;-62
2023/11/15 04:17:50;;;;;;;3.25;2.90;;;;;;;6.43;100.00;96580.63;5089226;28;20070;-63
2023/11/15 04:20:16;;;;;;;5.25;3.72;;;;;;;6.44;100.00;96579.69;5079809;28;20477;-62
2023/11/15 04:22:41;;;;;;;23.05;14.82;;;;;;;6.47;100.00;96563.78;5098599;28;20031;-62
2023/11/15 04:25:08;;;;;;;17.48;10.43;;;;;;;6.49;100.00;96561.09;5089053;28;20024;-62
2023/11/15 04:27:33;;;;;;;14.88;9.50;;;;;;;6.49;100.00;96558.47;5091145;28;20028;-62
2023/11/15 04:29:59;;;;;;;11.90;8.27;;;;;;;6.48;100.00;96562.03;5087567;28;20550;-62
2023/11/15 04:32:24;;;;;;;13.85;8.35;;;;;;;6.47;100.00;96563.78;5082756;28;20137;-62
2023/11/15 04:34:50;;;;;;;11.93;7.30;;;;;;;6.50;100.00;96571.44;5081001;28;20052;-62
2023/11/15 04:37:16;;;;;;;54.08;34.38;;;;;;;6.53;100.00;96566.06;5083552;28;20568;-62
2023/11/15 04:39:42;;;;;;;32.70;21.33;;;;;;;6.59;100.00;96563.03;5078765;28;20393;-62
2023/11/15 04:42:10;;;;;;;20.05;14.50;;;;;;;6.50;100.00;96560.97;5077452;28;20097;-63
2023/11/15 04:44:35;;;;;;;5.32;3.53;;;;;;;6.43;100.00;96559.69;5086442;28;20018;-62
2023/11/15 04:47:01;;;;;;;41.95;34.70;;;;;;;6.40;100.00;96554.66;5093849;28;20746;-62
2023/11/15 04:49:26;;;;;;;77.95;70.47;;;;;;;6.44;100.00;96553.53;5084153;28;20511;-63
2023/11/15 04:51:52;;;;;;;19.10;17.23;;;;;;;6.45;100.00;96557.81;5080262;28;20032;-62
2023/11/15 04:54:17;;;;;;;7.78;5.68;;;;;;;6.49;100.00;96556.69;5087634;28;20374;-62
2023/11/15 04:56:42;;;;;;;11.20;8.68;;;;;;;6.57;100.00;96557.06;5081015;28;20043;-62
2023/11/15 04:59:08;;;;;;;20.92;18.65;;;;;;;6.59;100.00;96554.34;5079896;28;20488;-62
2023/11/15 05:01:34;;;;;;;20.50;18.50;;;;;;;6.63;100.00;96552.38;5059815;28;20493;-63
2023/11/15 05:03:59;;;;;;;26.15;23.58;;;;;;;6.66;100.00;96545.19;5085310;28;20091;-62
2023/11/15 05:06:25;;;;;;;20.85;18.92;;;;;;;6.62;100.00;96540.22;5077603;28;20081;-62
2023/11/15 05:08:50;;;;;;;16.25;14.65;;;;;;;6.61;100.00;96546.41;5078097;28;20086;-63
2023/11/15 05:11:15;;;;;;;18.83;17.10;;;;;;;6.62;100.00;96535.00;5090434;28;20044;-62
2023/11/15 05:13:41;;;;;;;6.85;6.25;;;;;;;6.61;100.00;96536.75;5093695;28;20051;-63
2023/11/15 05:16:06;;;;;;;7.03;2.50;;;;;;;6.57;100.00;96530.03;5091823;28;20031;-62
2023/11/15 05:18:32;;;;;;;8.43;2.90;;;;;;;6.52;100.00;96535.59;5101675;28;20126;-63
2023/11/15 05:20:57;;;;;;;4.65;2.63;;;;;;;6.51;100.00;96538.28;5081699;28;20089;-62
2023/11/15 05:23:23;;;;;;;20.20;11.20;;;;;;;6.53;100.00;96539.88;5082693;28;20034;-62
2023/11/15 05:25:48;;;;;;;7.20;3.40;;;;;;;6.54;100.00;96546.78;5083564;28;20084;-62
2023/11/15 05:28:14;;;;;;;5.57;2.88;;;;;;;6.51;100.00;96548.75;5085894;28;20050;-62
2023/11/15 05:30:41;;;;;;;5.15;4.10;;;;;;;6.49;100.00;96558.47;5076669;28;20504;-62
2023/11/15 05:33:06;;;;;;;12.48;8.93;;;;;;;6.44;100.00;96561.38;5089125;28;20441;-62
2023/11/15 05:35:32;;;;;;;12.18;6.18;;;;;;;6.44;100.00;96556.13;5086368;28;20082;-62
2023/11/15 05:37:58;;;;;;;9.43;7.00;;;;;;;6.50;100.00;96554.91;5087001;28;20081;-62
2023/11/15 05:40:23;;;;;;;8.60;5.75;;;;;;;6.54;100.00;96562.50;5085824;28;20031;-62
2023/11/15 05:42:48;;;;;;;12.35;8.55;;;;;;;6.55;100.00;96558.09;5091148;28;20032;-62
2023/11/15 05:45:15;;;;;;;14.10;7.13;;;;;;;6.56;100.00;96563.25;5085464;28;20790;-62
2023/11/15 05:47:41;;;;;;;8.55;7.00;;;;;;;6.55;100.00;96555.47;5082235;28;20043;-62
2023/11/15 05:50:09;;;;;;;8.73;7.40;;;;;;;6.59;100.00;96551.72;5074515;28;20021;-62
2023/11/15 05:52:34;;;;;;;8.95;6.40;;;;;;;6.62;100.00;96548.09;5087543;28;20124;-62
2023/11/15 05:55:00;;;;;;;8.32;7.25;;;;;;;6.59;100.00;96557.81;5089245;28;20098;-62
2023/11/15 05:57:25;;;;;;;9.85;8.63;;;;;;;6.62;100.00;96562.00;5084851;28;20070;-63
2023/11/15 05:59:50;;;;;;;11.15;7.65;;;;;;;6.65;100.00;96559.22;5087633;28;20024;-62
2023/11/15 06:02:16;;;;;;;11.10;7.60;;;;;;;6.67;100.00;96556.47;5076991;28;20036;-62
2023/11/15 06:04:41;;;;;;;7.97;6.72;;;;;;;6.70;100.00;96544.06;5085974;28;20051;-63
2023/11/15 06:07:09;;;;;;;7.45;5.93;;;;;;;6.78;100.00;96550.56;5087157;28;20020;-62
2023/11/15 06:09:35;;;;;;;9.85;5.88;;;;;;;6.74;100.00;96548.16;5081641;28;20051;-63
2023/11/15 06:12:00;;;;;;;7.47;4.38;;;;;;;6.72;100.00;96547.41;5075619;28;20052;-63
2023/11/15 06:14:25;;;;;;;6.78;4.50;;;;;;;6.78;100.00;96553.19;5075494;28;20043;-63
2023/11/15 06:16:51;;;;;;;4.78;3.53;;;;;;;6.82;100.00;96552.03;5088266;28;20032;-63
2023/11/15 06:19:16;;;;;;;5.45;3.20;;;;;;;6.84;100.00;96547.56;5078496;28;20029;-63
2023/11/15 06:21:46;;;;;;;7.15;4.60;;;;;;;6.90;100.00;96556.78;5076344;28;20655;-63
2023/11/15 06:24:14;;;;;;;12.75;9.18;;;;;;;6.88;100.00;96552.50;5084231;28;20040;-63
2023/11/15 06:26:40;;;;;;;10.35;7.20;;;;;;;6.87;100.00;96558.69;5081746;28;20036;-63
2023/11/15 06:29:07;;;;;;;9.65;7.10;;;;;;;6.85;100.00;96557.94;5086890;28;20035;-63
2023/11/15 06:31:32;;;;;;;6.53;4.30;;;;;;;7.15;100.00;96559.50;5085767;28;20027;-63
2023/11/15 06:33:58;;;;;;;4.45;4.00;;;;;;;6.96;100.00;96551.16;5075377;28;20538;-63
2023/11/15 06:36:24;;;;;;;5.93;3.78;;;;;;;6.94;100.00;96547.81;5086032;28;20028;-63
2023/11/15 06:38:49;;;;;;;7.60;4.88;;;;;;;6.94;100.00;96553.03;5086144;28;20091;-62
2023/11/15 06:41:15;;;;;;;7.30;5.75;;;;;;;6.90;100.00;96548.94;5080181;28;20106;-62
2023/11/15 06:43:41;;;;;;;11.40;6.07;;;;;;;6.85;100.00;96555.31;5075504;28;20029;-62
2023/11/15 06:46:07;;;;;;;5.60;4.82;;;;;;;6.86;100.00;96562.22;5077318;28;20058;-64
2023/11/15 06:48:33;;;;;;;8.52;6.63;;;;;;;6.86;100.00;96559.63;5079396;28;20638;-64
2023/11/15 06:50:58;;;;;;;12.65;11.50;;;;;;;6.87;100.00;96565.72;5078908;28;20082;-64
2023/11/15 06:53:24;;;;;;;12.57;11.48;;;;;;;6.93;100.00;96567.94;5081030;28;20496;-63
2023/11/15 06:55:49;;;;;;;12.38;11.07;;;;;;;6.98;100.00;96578.94;5077838;28;20029;-63
2023/11/15 06:58:18;;;;;;;10.80;9.80;;;;;;;7.07;100.00;96580.13;5082409;28;20496;-63
2023/11/15 07:00:44;;;;;;;10.63;9.38;;;;;;;7.11;100.00;96586.84;5085276;28;20036;-63
2023/11/15 07:03:12;;;;;;;16.73;15.23;;;;;;;7.16;100.00;96590.00;5081689;28;20050;-64
2023/11/15 07:05:40;;;;;;;8.35;5.70;;;;;;;7.17;100.00;96586.44;5088894;28;20526;-64
2023/11/15 07:08:11;;;;;;;10.05;4.88;;;;;;;7.20;100.00;96587.22;5081557;28;20042;-63
2023/11/15 07:10:37;;;;;;;11.65;5.53;;;;;;;7.23;100.00;96589.63;5075351;28;20057;-63
2023/11/15 07:13:03;;;;;;;6.13;5.53;;;;;;;7.31;100.00;96600.44;5076589;28;20028;-63
2023/11/15 07:15:30;;;;;;;9.25;6.07;;;;;;;7.28;100.00;96595.41;5078298;28;20068;-63
2023/11/15 07:17:55;;;;;;;8.75;5.03;;;;;;;7.25;100.00;96600.84;5080598;28;20469;-63
2023/11/15 07:20:21;;;;;;;6.82;5.20;;;;;;;7.29;100.00;96604.94;5072594;28;20043;-63
2023/11/15 07:22:47;;;;;;;7.32;5.28;;;;;;;7.33;100.00;96611.66;5088338;28;20059;-64
2023/11/15 07:25:14;;;;;;;9.30;7.10;;;;;;;7.29;100.00;96610.19;5074008;28;20541;-64
2023/11/15 07:27:39;;;;;;;12.73;11.43;;;;;;;7.31;100.00;96608.28;5084191;28;20063;-63
2023/11/15 07:30:08;;;;;;;9.05;5.57;;;;;;;7.34;100.00;96612.50;5087053;28;20056;-63
2023/11/15 07:32:34;;;;;;;6.30;4.45;;;;;;;7.34;100.00;96621.19;5080547;28;20107;-63
2023/11/15 07:34:59;;;;;;;5.10;4.60;;;;;;;7.31;100.00;96619.63;5077278;28;20500;-64
2023/11/15 07:37:24;;;;;;;10.50;6.03;;;;;;;7.39;100.00;96628.75;5079738;28;20252;-64
2023/11/15 07:39:50;;;;;;;12.85;8.30;;;;;;;7.43;100.00;96627.63;5073997;28;20032;-63
2023/11/15 07:42:17;;;;;;;10.20;5.78;;;;;;;7.46;100.00;96627.41;5083360;28;20106;-63
2023/11/15 07:44:43;;;;;;;16.08;14.35;;;;;;;7.52;100.00;96632.28;5092067;28;20152;-64
2023/11/15 07:47:13;;;;;;;19.73;17.63;;;;;;;7.55;100.00;96641.69;5078402;28;20019;-63
2023/11/15 07:49:39;;;;;;;7.80;7.10;;;;;;;7.57;100.00;96640.69;5085677;28;20090;-63
2023/11/15 07:52:05;;;;;;;9.70;6.15;;;;;;;7.59;100.00;96651.03;5078238;28;20028;-64
2023/11/15 07:54:33;;;;;;;8.60;5.82;;;;;;;7.60;100.00;96656.19;5081001;28;20027;-63
2023/11/15 07:56:58;;;;;;;6.90;5.63;;;;;;;7.65;100.00;96658.53;5081073;28;20050;-64
2023/11/15 07:59:26;;;;;;;13.13;6.05;;;;;;;7.71;100.00;96658.13;5090270;28;20024;-63
2023/11/15 08:01:51;;;;;;;7.50;6.00;;;;;;;7.76;100.00;96654.34;5086008;28;20583;-63
2023/11/15 08:04:18;;;;;;;19.45;16.42;;;;;;;7.83;100.00;96655.63;5086317;28;20036;-63
2023/11/15 08:06:43;;;;;;;17.60;13.68;;;;;;;7.83;100.00;96660.84;5076426;28;20096;-63
2023/11/15 08:09:11;;;;;;;28.20;18.63;;;;;;;7.85;100.00;96666.88;5075896;28;20588;-63
2023/11/15 08:11:36;;;;;;;11.65;8.23;;;;;;;7.88;100.00;96671.91;5077504;28;20045;-64
2023/11/15 08:14:06;;;;;;;15.45;8.05;;;;;;;7.84;100.00;96671.25;5075325;28;20592;-63
2023/11/15 08:16:33;;;;;;;13.77;10.45;;;;;;;7.87;100.00;96671.06;5082537;28;20378;-63
2023/11/15 08:18:59;;;;;;;10.48;6.65;;;;;;;7.92;100.00;96678.63;5087468;28;20035;-64
2023/11/15 08:21:24;;;;;;;7.38;4.45;;;;;;;7.91;100.00;96674.31;5096225;28;20038;-64
2023/11/15 08:23:50;;;;;;;8.23;6.05;;;;;;;7.84;100.00;96670.41;5089622;28;20035;-63
2023/11/15 08:26:19;;;;;;;9.70;6.15;;;;;;;7.97;100.00;96675.72;5095726;28;20032;-64
2023/11/15 08:28:46;;;;;;;5.75;4.75;;;;;;;8.05;100.00;96685.66;5091266;28;20017;-64
2023/11/15 08:31:14;;;;;;;7.40;4.95;;;;;;;8.11;100.00;96688.72;5082228;28;20028;-63
2023/11/15 08:33:40;;;;;;;5.80;4.50;;;;;;;8.16;100.00;96699.75;5081265;28;20146;-63
2023/11/15 08:36:09;;;;;;;27.23;19.75;;;;;;;8.22;100.00;96702.94;5080052;28;20052;-63
2023/11/15 08:38:34;;;;;;;16.35;11.18;;;;;;;8.16;100.00;96701.53;5087601;28;20485;-64
2023/11/15 08:41:00;;;;;;;14.35;10.27;;;;;;;8.19;100.00;96703.97;5090266;28;20104;-63
2023/11/15 08:43:25;;;;;;;11.95;6.55;;;;;;;8.18;100.00;96710.16;5093711;28;20796;-64
2023/11/15 08:45:51;;;;;;;8.57;6.53;;;;;;;8.22;100.00;96731.78;5079898;28;20028;-64
2023/11/15 08:48:19;;;;;;;10.30;5.10;;;;;;;8.30;100.00;96737.34;5074116;28;20031;-63
2023/11/15 08:50:45;;;;;;;6.78;3.60;;;;;;;8.39;100.00;96730.66;5081272;28;20057;-64
2023/11/15 08:53:11;;;;;;;7.72;3.80;;;;;;;8.43;100.00;96732.13;5095308;28;20032;-63
2023/11/15 08:55:37;;;;;;;7.47;3.38;;;;;;;8.48;100.00;96729.19;5089777;28;20028;-64
2023/11/15 08:58:05;;;;;;;7.60;3.83;;;;;;;8.57;100.00;96733.84;5075227;28;20035;-64
2023/11/15 09:00:31;;;;;;;6.78;3.42;;;;;;;8.66;100.00;96742.88;5087195;28;20569;-64
2023/11/15 09:02:57;;;;;;;5.80;3.28;;;;;;;8.72;100.00;96743.31;5085995;28;20028;-64
2023/11/15 09:05:24;;;;;;;8.15;4.28;;;;;;;8.80;100.00;96755.06;5088889;28;20725;-63
2023/11/15 09:07:50;;;;;;;7.60;4.13;;;;;;;8.78;100.00;96742.06;5085970;28;20478;-64
2023/11/15 09:10:16;;;;;;;8.60;4.57;;;;;;;8.77;100.00;96740.38;5094492;28;20105;-64
2023/11/15 09:12:44;;;;;;;9.43;4.97;;;;;;;8.78;100.00;96747.31;5094408;28;20070;-64
2023/11/15 09:15:13;;;;;;;8.48;5.03;;;;;;;8.81;100.00;96749.72;5076092;28;20462;-64
2023/11/15 09:17:50;;;;;;;5.85;4.75;;;;;;;8.82;100.00;96751.41;5079990;28;20036;-64
2023/11/15 09:20:19;;;;;;;8.40;5.30;;;;;;;8.86;100.00;96755.50;5084008;28;20055;-63
2023/11/15 09:22:54;;;;;;;12.27;8.90;;;;;;;8.87;100.00;96751.91;5088596;28;20469;-63
2023/11/15 09:25:24;;;;;;;16.50;10.15;;;;;;;8.89;100.00;96762.34;5081071;28;20025;-64
2023/11/15 09:27:52;;;;;;;11.05;8.15;;;;;;;8.96;100.00;96766.22;5087237;28;20395;-63
2023/11/15 09:30:18;;;;;;;9.93;7.32;;;;;;;8.98;100.00;96769.56;5082622;28;20033;-64
2023/11/15 09:32:47;;;;;;;10.25;6.53;;;;;;;9.09;100.00;96775.88;5084862;28;20028;-63
2023/11/15 09:35:14;;;;;;;11.80;7.10;;;;;;;9.27;100.00;96773.75;5076881;28;20039;-64
2023/11/15 09:37:41;;;;;;;7.40;5.03;;;;;;;9.26;100.00;96772.91;5093281;28;20043;-63
2023/11/15 09:40:11;;;;;;;8.93;4.80;;;;;;;9.36;100.00;96778.34;5095610;28;20032;-64
2023/11/15 09:42:42;;;;;;;9.02;4.05;;;;;;;9.36;100.00;96778.34;5093575;28;20047;-64
2023/11/15 09:45:11;;;;;;;4.43;3.28;;;;;;;9.40;100.00;96781.63;5094812;28;20035;-64
2023/11/15 09:47:38;;;;;;;7.25;3.45;;;;;;;9.37;100.00;96772.16;5083709;28;20023;-64
2023/11/15 09:50:06;;;;;;;11.80;7.93;;;;;;;9.33;100.00;96768.06;5075931;28;20106;-64
2023/11/15 09:52:36;;;;;;;9.38;6.20;;;;;;;9.28;100.00;96765.78;5088435;28;20020;-64
2023/11/15 09:55:02;;;;;;;9.20;6.70;;;;;;;9.21;100.00;96764.50;5082155;28;20036;-64
2023/11/15 09:57:27;;;;;;;11.80;9.13;;;;;;;9.17;100.00;96768.31;5089663;28;20093;-64
2023/11/15 09:59:53;;;;;;;13.68;8.55;;;;;;;9.15;100.00;96768.41;5075392;28;20032;-63
2023/11/15 10:02:19;;;;;;;14.70;7.68;;;;;;;9.10;100.00;96756.53;5086209;28;20433;-64
2023/11/15 10:04:45;;;;;;;8.65;4.63;;;;;;;9.10;100.00;96753.91;5092566;28;20091;-64
2023/11/15 10:07:25;;;;;;;8.98;6.20;;;;;;;9.16;100.00;96756.94;5076375;28;20844;-64
2023/11/15 10:09:52;;;;;;;9.55;5.03;;;;;;;9.25;100.00;96752.00;5075016;28;20028;-64
2023/11/15 10:12:18;;;;;;;10.43;3.35;;;;;;;9.33;100.00;96754.91;5085285;28;20052;-64
2023/11/15 10:14:53;;;;;;;33.15;25.98;;;;;;;9.33;100.00;96747.03;5079734;28;20029;-64
2023/11/15 10:17:20;;;;;;;13.98;9.55;;;;;;;9.36;100.00;96740.75;5075526;28;20024;-64
2023/11/15 10:19:46;;;;;;;18.55;12.63;;;;;;;9.47;100.00;96719.78;5074977;28;20025;-64
2023/11/15 10:22:14;;;;;;;27.75;20.88;;;;;;;9.58;100.00;96704.06;5077786;28;20031;-64
2023/11/15 10:24:40;;;;;;;18.38;14.52;;;;;;;9.69;100.00;96698.03;5073602;28;20023;-64
2023/11/15 10:27:11;;;;;;;10.60;6.50;;;;;;;9.82;100.00;96681.34;5077414;28;20020;-64
2023/11/15 10:29:39;;;;;;;12.02;8.70;;;;;;;9.96;100.00;96672.47;5088700;28;20038;-64
2023/11/15 10:32:05;;;;;;;12.43;8.55;;;;;;;9.99;100.00;96657.28;5085923;28;20087;-64
2023/11/15 10:34:32;;;;;;;17.42;14.77;;;;;;;10.04;100.00;96641.97;5094513;28;20550;-64
2023/11/15 10:37:10;;;;;;;12.52;9.43;;;;;;;10.03;100.00;96632.41;5090766;28;20028;-64
2023/11/15 10:39:43;;;;;;;4.88;2.90;;;;;;;10.16;100.00;96620.97;5087997;28;20027;-64
2023/11/15 10:42:13;;;;;;;4.78;2.47;;;;;;;10.37;100.00;96610.56;5092832;28;20451;-64
2023/11/15 10:44:41;;;;;;;8.05;3.03;;;;;;;10.51;100.00;96612.19;5076725;28;20028;-64
2023/11/15 10:47:08;;;;;;;11.85;10.65;;;;;;;10.61;100.00;96604.44;5074902;28;20020;-64
2023/11/15 10:49:40;;;;;;;3.75;2.53;;;;;;;10.55;100.00;96605.72;5093922;28;20019;-64
2023/11/15 10:52:07;;;;;;;11.63;8.82;;;;;;;10.56;100.00;96602.16;5081171;28;20027;-64
2023/11/15 10:54:33;;;;;;;6.97;3.30;;;;;;;10.56;100.00;96612.69;5082009;28;20058;-65
2023/11/15 10:57:00;;;;;;;7.93;6.85;;;;;;;10.51;100.00;96612.19;5074770;28;20020;-64
2023/11/15 10:59:27;;;;;;;69.93;10.45;;;;;;;10.56;100.00;96610.03;5073624;28;20020;-64
2023/11/15 11:01:54;;;;;;;47.28;9.15;;;;;;;10.66;100.00;96614.56;5090708;28;20039;-65
2023/11/15 11:04:21;;;;;;;5.10;2.85;;;;;;;10.65;100.00;96612.91;5091131;28;20463;-64
2023/11/15 11:07:41;;;;;;;17.67;4.72;;;;;;;10.71;100.00;96618.53;5091132;28;20038;-65
2023/11/15 11:10:18;;;;;;;12.23;10.98;;;;;;;10.77;100.00;96626.91;5036153;28;20072;-64
2023/11/15 11:12:44;;;;;;;12.30;10.88;;;;;;;10.76;100.00;96652.44;5079691;28;20028;-64
2023/11/15 11:15:19;;;;;;;6.53;4.30;;;;;;;10.80;100.00;96648.59;5076386;28;20168;-65
2023/11/15 11:17:47;;;;;;;12.68;9.73;;;;;;;10.89;100.00;96647.84;5081387;28;20056;-64
2023/11/15 11:20:27;;;;;;;12.98;9.88;;;;;;;11.02;100.00;96649.53;5083508;28;20023;-64
2023/11/15 11:23:16;;;;;;;6.78;3.15;;;;;;;11.19;100.00;96658.72;5086417;28;20055;-64
2023/11/15 11:25:42;;;;;;;4.80;1.95;;;;;;;11.35;100.00;96658.34;5085437;28;20020;-64